Portada
METAR-TAF:

METAR-TAF

Aeroports :

Uliànovsk, Rússia

latitud: 54-21N, longitud: 048-23E, altitud: 77 m

Observació

L'informe es va fer fa 1 hora i 0 minuts, a les 23:00 UTC
Vent calma
Temperatura 12°C
Humitat 88%
Pressió 1010 hPa
Visibilitat: 8000 m

METAR: UWLW 112300Z 00000MPS 8000 NSC 12/10 Q1010 R02/CLRD60 NOSIG RMK QFE751

Hora: 03:00 (00:00 UTC)

Pronòstic

L'informe es va fer fa 1 hora i 15 minuts, a les 22:45 UTC
Pronòstic vàlid del 12 a les 00 UTC al 12 a les 24 UTC
Vent 6 kt del Sud
Visibilitat: 8000 m
Cel ennuvolat a una alçada de 3300 ft
Temporalment
l' 12 a les 00 UTC al 12 a les 24 UTC
Vent 12 kt del Sud-Oest amb ràfegues de 23 kt
Visibilitat: 6000 m
Cel ennuvolat a una alçada de 1600 ft, Cumulonimbus.
xàfecs de pluja

TAF: UWLW 112245Z 1200/1224 17003MPS 8000 BKN033 TX21/1211Z TN12/1201Z TEMPO 1200/1224 22006G12MPS 6000 -SHRA BKN016CB

Observacions i pronòstics meteorològics de més de 4000 aeroports (METAR i TAF).

Les estacions disponibles són els punts grocs i vermells al mapa.

Posi el ratolí al punt desitjat per veure el nom de l'estació.

Feu clic per veure les observacions i els pronòstics meteorològics.

Per canviar el mapa: feu clic els botons verds amb una creu de color negre per apropar; al botó verd amb un guió per allunyar la imatge; o en les fletxes verdes per a mapes adjacents.


METAR-TAF: